Time;durP1;ratioP1;P1;durP2;ratioP2;P2;SDS_P1;SDS_P2;PMS_P1;PMS_P2;Temp;Humidity;BMP_temperature;BMP_pressure;BME280_temperature;BME280_humidity;BME280_pressure;Samples;Min_cycle;Max_cycle;Signal;HPM_P1;HPM_P2
2023/12/29 00:01:01;;;;;;;;;;;9.50;99.90;;;;;;5098826;28;19912;-75
2023/12/29 00:03:47;;;;;;;;;;;9.50;99.90;;;;;;5106984;28;19983;-76
2023/12/29 00:06:33;;;;;;;;;;;9.50;99.90;;;;;;5098261;28;19916;-76
2023/12/29 00:09:22;;;;;;;;;;;9.50;99.90;;;;;;5102252;28;20260;-76
2023/12/29 00:12:08;;;;;;;;;;;9.50;99.90;;;;;;5113477;28;20335;-76
2023/12/29 00:14:56;;;;;;;;;;;9.50;99.90;;;;;;5093054;28;20008;-76
2023/12/29 00:17:46;;;;;;;;;;;9.50;99.90;;;;;;5086613;28;20011;-76
2023/12/29 00:20:32;;;;;;;;;;;9.40;99.90;;;;;;5097780;28;20006;-76
2023/12/29 00:23:18;;;;;;;;;;;9.40;99.90;;;;;;5089593;28;19979;-76
2023/12/29 00:26:04;;;;;;;;;;;9.50;99.90;;;;;;5096120;28;19912;-75
2023/12/29 00:28:50;;;;;;;;;;;9.40;99.90;;;;;;5112238;28;19915;-75
2023/12/29 00:31:36;;;;;;;;;;;9.40;99.90;;;;;;5100978;28;19947;-75
2023/12/29 00:34:22;;;;;;;;;;;9.40;99.90;;;;;;5101883;28;19919;-75
2023/12/29 00:37:08;;;;;;;;;;;9.50;99.90;;;;;;5095898;28;20390;-76
2023/12/29 00:39:54;;;;;;;;;;;9.50;99.90;;;;;;5100437;28;20569;-75
2023/12/29 00:42:40;;;;;;;;;;;9.50;99.90;;;;;;5107524;27;20317;-76
2023/12/29 00:45:36;;;;;;;;;;;9.50;99.90;;;;;;5097259;28;20329;-76
2023/12/29 00:48:21;;;;;;;;;;;9.50;99.90;;;;;;5097416;28;19936;-75
2023/12/29 00:51:07;;;;;;;;;;;9.50;99.90;;;;;;5117441;27;20259;-76
2023/12/29 00:53:53;;;;;;;;;;;9.50;99.90;;;;;;5100069;28;20002;-76
2023/12/29 00:56:39;;;;;;;;;;;9.50;99.90;;;;;;5101959;28;20387;-76
2023/12/29 00:59:25;;;;;;;;;;;9.50;99.90;;;;;;5118247;28;19950;-76
2023/12/29 01:02:11;;;;;;;;;;;9.50;99.90;;;;;;5117292;28;19966;-75
2023/12/29 01:04:57;;;;;;;;;;;9.50;99.90;;;;;;5092014;28;19912;-76
2023/12/29 01:07:43;;;;;;;;;;;9.50;99.90;;;;;;5077602;28;19924;-76
2023/12/29 01:10:28;;;;;;;;;;;9.40;99.90;;;;;;5074715;28;20285;-76
2023/12/29 01:13:14;;;;;;;;;;;9.50;99.90;;;;;;5082694;28;19935;-75
2023/12/29 01:16:00;;;;;;;;;;;9.50;99.90;;;;;;5082516;28;20588;-76
2023/12/29 01:18:46;;;;;;;;;;;9.50;99.90;;;;;;5076999;28;20005;-76
2023/12/29 01:21:33;;;;;;;;;;;9.50;99.90;;;;;;5067525;28;19912;-76
2023/12/29 01:24:19;;;;;;;;;;;9.50;99.90;;;;;;5086398;28;19978;-75
2023/12/29 01:27:05;;;;;;;;;;;9.50;99.90;;;;;;5092803;28;20630;-76
2023/12/29 01:29:52;;;;;;;;;;;9.50;99.90;;;;;;5076544;28;19956;-75
2023/12/29 01:32:38;;;;;;;;;;;9.50;99.90;;;;;;5088303;28;20006;-75
2023/12/29 01:35:24;;;;;;;;;;;9.50;99.90;;;;;;5074391;28;19912;-76
2023/12/29 01:38:10;;;;;;;;;;;9.50;99.90;;;;;;5094400;28;19920;-75
2023/12/29 01:40:56;;;;;;;;;;;9.50;99.90;;;;;;5088135;28;19946;-75
2023/12/29 01:44:00;;;;;;;;;;;9.60;99.90;;;;;;5081859;28;19959;-76
2023/12/29 01:46:51;;;;;;;;;;;9.50;99.90;;;;;;5092855;28;19916;-76
2023/12/29 01:49:38;;;;;;;;;;;9.50;99.90;;;;;;5082175;28;20363;-76
2023/12/29 01:52:24;;;;;;;;;;;9.50;99.90;;;;;;5080554;28;19924;-76
2023/12/29 01:55:11;;;;;;;;;;;9.50;99.90;;;;;;5080401;28;19916;-76
2023/12/29 01:57:58;;;;;;;;;;;9.50;99.90;;;;;;5095972;28;19973;-76
2023/12/29 02:00:47;;;;;;;;;;;9.60;99.90;;;;;;5078642;28;20015;-76
2023/12/29 02:03:34;;;;;;;;;;;9.50;99.90;;;;;;5097044;28;19916;-76
2023/12/29 02:06:21;;;;;;;;;;;9.50;99.90;;;;;;5082027;28;19990;-76
2023/12/29 02:09:07;;;;;;;;;;;9.50;99.90;;;;;;5080784;28;20350;-74
2023/12/29 02:11:53;;;;;;;;;;;9.40;99.90;;;;;;5079178;28;20252;-76
2023/12/29 02:14:40;;;;;;;;;;;9.40;99.90;;;;;;5094590;28;19911;-76
2023/12/29 02:17:27;;;;;;;;;;;9.40;99.90;;;;;;5071324;28;20007;-75
2023/12/29 02:20:14;;;;;;;;;;;9.40;99.90;;;;;;5092000;28;19998;-76
2023/12/29 02:23:01;;;;;;;;;;;9.40;99.90;;;;;;5087625;28;19924;-76
2023/12/29 02:25:47;;;;;;;;;;;9.40;99.90;;;;;;5094251;28;19912;-75
2023/12/29 02:28:33;;;;;;;;;;;9.40;99.90;;;;;;5064958;28;19916;-76
2023/12/29 02:31:20;;;;;;;;;;;9.30;99.90;;;;;;5081485;28;19916;-76
2023/12/29 02:34:06;;;;;;;;;;;9.40;99.90;;;;;;5075991;28;19922;-76
2023/12/29 02:36:53;;;;;;;;;;;9.30;99.90;;;;;;5094364;28;19947;-76
2023/12/29 02:39:40;;;;;;;;;;;9.30;99.90;;;;;;5088315;28;19920;-76
2023/12/29 02:42:26;;;;;;;;;;;9.30;99.90;;;;;;5075550;28;20011;-76
2023/12/29 02:45:12;;;;;;;;;;;9.30;99.90;;;;;;5059762;28;20529;-76
2023/12/29 02:47:58;;;;;;;;;;;9.30;99.90;;;;;;5087106;28;19916;-76
2023/12/29 02:50:47;;;;;;;;;;;9.30;99.90;;;;;;5093337;28;19942;-76
2023/12/29 02:53:33;;;;;;;;;;;9.30;99.90;;;;;;5076794;28;19919;-75
2023/12/29 02:56:18;;;;;;;;;;;9.30;99.90;;;;;;5068071;28;19916;-75
2023/12/29 02:59:04;;;;;;;;;;;9.40;99.90;;;;;;5072056;28;19939;-76
2023/12/29 03:01:50;;;;;;;;;;;9.40;99.90;;;;;;5092161;28;20221;-76
2023/12/29 03:04:36;;;;;;;;;;;9.40;99.90;;;;;;5067457;28;19920;-75
2023/12/29 03:07:22;;;;;;;;;;;9.40;99.90;;;;;;5078291;28;19947;-76
2023/12/29 03:10:08;;;;;;;;;;;9.40;99.90;;;;;;5065169;28;19920;-75
2023/12/29 03:12:54;;;;;;;;;;;9.40;99.90;;;;;;5081089;28;19920;-76
2023/12/29 03:15:43;;;;;;;;;;;9.40;99.90;;;;;;5095554;28;19920;-75
2023/12/29 03:18:29;;;;;;;;;;;9.40;99.90;;;;;;5095177;28;19952;-76
2023/12/29 03:21:15;;;;;;;;;;;9.40;99.90;;;;;;5066649;28;19916;-76
2023/12/29 03:24:01;;;;;;;;;;;9.50;99.90;;;;;;5081857;28;19985;-76
2023/12/29 03:26:46;;;;;;;;;;;9.50;99.90;;;;;;5085480;28;19939;-76
2023/12/29 03:29:32;;;;;;;;;;;9.50;99.90;;;;;;5064019;28;19912;-76
2023/12/29 03:32:19;;;;;;;;;;;9.50;99.90;;;;;;5067221;28;20039;-75
2023/12/29 03:35:05;;;;;;;;;;;9.50;99.90;;;;;;5063415;28;19920;-76
2023/12/29 03:37:50;;;;;;;;;;;9.60;99.90;;;;;;5082768;28;19948;-76
2023/12/29 03:40:36;;;;;;;;;;;9.60;99.90;;;;;;5089500;28;19919;-76
2023/12/29 03:43:22;;;;;;;;;;;9.60;99.90;;;;;;5078172;28;20247;-76
2023/12/29 03:46:15;;;;;;;;;;;9.60;99.90;;;;;;5082966;28;19955;-75
2023/12/29 03:49:01;;;;;;;;;;;9.60;99.90;;;;;;5060412;28;20305;-76
2023/12/29 03:51:47;;;;;;;;;;;9.60;99.90;;;;;;5074425;28;19970;-76
2023/12/29 03:54:33;;;;;;;;;;;9.60;99.90;;;;;;5092132;28;20019;-75
2023/12/29 03:57:18;;;;;;;;;;;9.60;99.90;;;;;;5076600;28;20016;-75
2023/12/29 04:00:06;;;;;;;;;;;9.60;99.90;;;;;;5088542;28;19982;-76
2023/12/29 04:02:52;;;;;;;;;;;9.60;99.90;;;;;;5093067;28;19930;-75
2023/12/29 04:05:37;;;;;;;;;;;9.60;99.90;;;;;;5073867;28;19931;-76
2023/12/29 04:08:23;;;;;;;;;;;9.60;99.90;;;;;;5089770;28;19920;-76
2023/12/29 04:11:10;;;;;;;;;;;9.60;99.90;;;;;;5087781;28;19924;-75
2023/12/29 04:13:55;;;;;;;;;;;9.70;99.90;;;;;;5077604;28;19917;-76
2023/12/29 04:16:42;;;;;;;;;;;9.70;99.90;;;;;;5079800;28;19927;-76
2023/12/29 04:19:27;;;;;;;;;;;9.70;99.90;;;;;;5077113;28;19931;-76
2023/12/29 04:22:13;;;;;;;;;;;9.70;99.90;;;;;;5068015;28;19956;-76
2023/12/29 04:24:59;;;;;;;;;;;9.70;99.90;;;;;;5083820;28;19913;-76
2023/12/29 04:27:45;;;;;;;;;;;9.70;99.90;;;;;;5075760;28;20390;-75
2023/12/29 04:30:31;;;;;;;;;;;9.70;99.90;;;;;;5065012;28;20656;-76
2023/12/29 04:33:17;;;;;;;;;;;9.60;99.90;;;;;;5073502;28;20655;-76
2023/12/29 04:36:03;;;;;;;;;;;9.60;99.90;;;;;;5115799;28;19929;-76
2023/12/29 04:38:49;;;;;;;;;;;9.50;99.90;;;;;;5088155;28;20375;-75
2023/12/29 04:41:35;;;;;;;;;;;9.40;99.90;;;;;;5084312;28;20005;-75
2023/12/29 04:44:20;;;;;;;;;;;9.40;99.90;;;;;;5114921;28;19920;-76
2023/12/29 04:47:07;;;;;;;;;;;9.30;99.90;;;;;;5076440;28;19913;-76
2023/12/29 04:49:53;;;;;;;;;;;9.30;99.90;;;;;;5091164;28;19919;-75
2023/12/29 04:52:39;;;;;;;;;;;9.20;99.90;;;;;;5070087;28;19920;-76
2023/12/29 04:55:25;;;;;;;;;;;9.30;99.90;;;;;;5090707;28;19942;-75
2023/12/29 04:58:11;;;;;;;;;;;9.20;99.90;;;;;;5093510;28;20278;-75
2023/12/29 05:00:57;;;;;;;;;;;9.10;99.90;;;;;;5074259;28;19916;-76
2023/12/29 05:03:45;;;;;;;;;;;9.10;99.90;;;;;;5077288;28;20672;-76
2023/12/29 05:06:31;;;;;;;;;;;9.10;99.90;;;;;;5080745;28;19977;-76
2023/12/29 05:09:17;;;;;;;;;;;9.00;99.90;;;;;;5067382;28;19917;-75
2023/12/29 05:12:03;;;;;;;;;;;9.00;99.90;;;;;;5086527;28;19919;-76
2023/12/29 05:14:49;;;;;;;;;;;9.10;99.90;;;;;;5083052;28;19916;-75
2023/12/29 05:17:35;;;;;;;;;;;9.10;99.90;;;;;;5082581;28;19920;-75
2023/12/29 05:20:21;;;;;;;;;;;9.10;99.90;;;;;;5082278;28;19912;-76
2023/12/29 05:23:07;;;;;;;;;;;9.10;99.90;;;;;;5076895;28;19935;-75
2023/12/29 05:25:52;;;;;;;;;;;9.10;99.90;;;;;;5106809;28;19916;-76
2023/12/29 05:28:38;;;;;;;;;;;9.20;99.90;;;;;;5098513;28;19916;-76
2023/12/29 05:31:24;;;;;;;;;;;9.20;99.90;;;;;;5083781;28;19965;-75
2023/12/29 05:34:10;;;;;;;;;;;9.20;99.90;;;;;;5084397;28;19954;-76
2023/12/29 05:36:56;;;;;;;;;;;9.10;99.90;;;;;;5083377;28;19916;-75
2023/12/29 05:39:42;;;;;;;;;;;9.20;99.90;;;;;;5082363;28;20652;-76
2023/12/29 05:42:28;;;;;;;;;;;9.20;99.90;;;;;;5092516;28;19924;-75
2023/12/29 05:45:15;;;;;;;;;;;9.20;99.90;;;;;;5078280;28;19917;-76
2023/12/29 05:48:01;;;;;;;;;;;9.20;99.90;;;;;;5097164;28;19930;-76
2023/12/29 05:50:47;;;;;;;;;;;9.20;99.90;;;;;;5096547;28;19926;-75
2023/12/29 05:53:33;;;;;;;;;;;9.10;99.90;;;;;;5066782;28;19913;-75
2023/12/29 05:56:19;;;;;;;;;;;9.10;99.90;;;;;;5074509;28;19972;-75
2023/12/29 05:59:05;;;;;;;;;;;9.10;99.90;;;;;;5078188;28;19924;-75
2023/12/29 06:01:51;;;;;;;;;;;9.00;99.90;;;;;;5076292;28;19927;-76
2023/12/29 06:04:37;;;;;;;;;;;9.00;99.90;;;;;;5086889;28;19973;-76
2023/12/29 06:07:23;;;;;;;;;;;8.90;99.90;;;;;;5077380;28;20308;-76
2023/12/29 06:10:12;;;;;;;;;;;8.90;99.90;;;;;;5093458;28;19920;-76
2023/12/29 06:12:57;;;;;;;;;;;8.90;99.90;;;;;;5082368;28;19927;-76
2023/12/29 06:15:43;;;;;;;;;;;8.80;99.90;;;;;;5095967;28;19916;-76
2023/12/29 06:18:29;;;;;;;;;;;8.80;99.90;;;;;;5083847;28;20279;-75
2023/12/29 06:21:15;;;;;;;;;;;8.80;99.90;;;;;;5089920;28;20260;-76
2023/12/29 06:24:01;;;;;;;;;;;8.80;99.90;;;;;;5083399;28;19924;-75
2023/12/29 06:26:47;;;;;;;;;;;8.70;99.90;;;;;;5088000;28;19912;-76
2023/12/29 06:29:33;;;;;;;;;;;8.80;99.90;;;;;;5071006;28;19924;-76
2023/12/29 06:32:20;;;;;;;;;;;8.80;99.90;;;;;;5079722;28;20026;-75
2023/12/29 06:35:07;;;;;;;;;;;8.80;99.90;;;;;;5095957;28;19999;-76
2023/12/29 06:37:52;;;;;;;;;;;8.80;99.90;;;;;;5083589;28;19916;-76
2023/12/29 06:40:38;;;;;;;;;;;8.80;99.90;;;;;;5089736;28;20527;-75
2023/12/29 06:43:24;;;;;;;;;;;8.80;99.90;;;;;;5072272;28;20635;-75
2023/12/29 06:46:12;;;;;;;;;;;8.80;99.90;;;;;;5069150;28;19916;-75
2023/12/29 06:49:00;;;;;;;;;;;8.80;99.90;;;;;;5089446;28;20336;-76
2023/12/29 06:51:46;;;;;;;;;;;8.80;99.90;;;;;;5078768;28;19919;-76
2023/12/29 06:54:36;;;;;;;;;;;8.80;99.90;;;;;;5088136;28;19912;-75
2023/12/29 06:57:22;;;;;;;;;;;8.80;99.90;;;;;;5073873;28;19931;-75
2023/12/29 07:00:10;;;;;;;;;;;8.90;99.90;;;;;;5084939;28;19989;-76
2023/12/29 07:02:57;;;;;;;;;;;8.90;99.90;;;;;;5094659;28;19938;-76
2023/12/29 07:05:43;;;;;;;;;;;8.90;99.90;;;;;;5082239;28;20610;-75
2023/12/29 07:08:29;;;;;;;;;;;8.90;99.90;;;;;;5096981;28;19916;-76
2023/12/29 07:11:16;;;;;;;;;;;8.90;99.90;;;;;;5081543;28;20007;-75
2023/12/29 07:14:04;;;;;;;;;;;8.90;99.90;;;;;;5082224;28;20410;-75
2023/12/29 07:16:49;;;;;;;;;;;8.90;99.90;;;;;;5088261;28;19916;-75
2023/12/29 07:19:38;;;;;;;;;;;8.90;99.90;;;;;;5089831;28;19935;-76
2023/12/29 07:22:24;;;;;;;;;;;9.00;99.90;;;;;;5080378;28;20457;-76
2023/12/29 07:25:11;;;;;;;;;;;9.00;99.90;;;;;;5093920;28;19923;-76
2023/12/29 07:27:58;;;;;;;;;;;9.00;99.90;;;;;;5074611;28;19939;-76
2023/12/29 07:30:46;;;;;;;;;;;9.00;99.90;;;;;;5076008;28;19958;-76
2023/12/29 07:33:33;;;;;;;;;;;9.00;99.90;;;;;;5091415;28;20252;-75
2023/12/29 07:36:19;;;;;;;;;;;9.10;99.90;;;;;;5087590;28;19966;-76
2023/12/29 07:39:05;;;;;;;;;;;9.00;99.90;;;;;;5088097;28;19923;-75
2023/12/29 07:41:51;;;;;;;;;;;9.10;99.90;;;;;;5061859;28;19912;-76
2023/12/29 07:44:37;;;;;;;;;;;9.10;99.90;;;;;;5075368;28;19944;-75
2023/12/29 07:47:24;;;;;;;;;;;9.10;99.90;;;;;;5091906;28;20003;-75
2023/12/29 07:50:11;;;;;;;;;;;9.10;99.90;;;;;;5094253;28;19919;-75
2023/12/29 07:53:00;;;;;;;;;;;9.20;99.90;;;;;;5095164;28;19927;-76
2023/12/29 07:55:48;;;;;;;;;;;9.20;99.90;;;;;;5094882;28;19974;-75
2023/12/29 07:58:34;;;;;;;;;;;9.20;99.90;;;;;;5080419;28;19912;-75
2023/12/29 08:01:21;;;;;;;;;;;9.30;99.90;;;;;;5080217;28;20335;-75
2023/12/29 08:04:07;;;;;;;;;;;9.30;99.90;;;;;;5074214;28;19931;-75
2023/12/29 08:06:52;;;;;;;;;;;9.40;99.90;;;;;;5076822;28;20253;-76
2023/12/29 08:09:38;;;;;;;;;;;9.40;99.90;;;;;;5089052;28;19943;-76
2023/12/29 08:12:24;;;;;;;;;;;9.40;99.90;;;;;;5091212;28;19917;-75
2023/12/29 08:15:11;;;;;;;;;;;9.40;99.90;;;;;;5095683;28;20003;-75
2023/12/29 08:17:57;;;;;;;;;;;9.50;99.90;;;;;;5112853;28;19996;-75
2023/12/29 08:20:43;;;;;;;;;;;9.50;99.90;;;;;;5092885;28;20374;-76
2023/12/29 08:23:29;;;;;;;;;;;9.50;99.90;;;;;;5095763;28;20030;-76
2023/12/29 08:26:15;;;;;;;;;;;9.60;99.90;;;;;;5088127;28;20243;-76
2023/12/29 08:29:00;;;;;;;;;;;9.60;99.90;;;;;;5095044;28;19912;-75
2023/12/29 08:31:46;;;;;;;;;;;9.70;99.90;;;;;;5087431;28;20317;-75
2023/12/29 08:34:34;;;;;;;;;;;9.80;99.90;;;;;;5077900;28;19927;-75
2023/12/29 08:37:19;;;;;;;;;;;9.80;99.90;;;;;;5093747;28;19916;-75
2023/12/29 08:40:06;;;;;;;;;;;9.90;99.90;;;;;;5093864;28;19923;-76
2023/12/29 08:42:52;;;;;;;;;;;10.00;99.90;;;;;;5074504;28;20521;-75
2023/12/29 08:45:38;;;;;;;;;;;10.00;99.90;;;;;;5094175;28;19930;-75
2023/12/29 08:48:25;;;;;;;;;;;10.10;99.90;;;;;;5088169;28;19916;-75
2023/12/29 08:51:11;;;;;;;;;;;10.20;99.90;;;;;;5078119;28;20362;-76
2023/12/29 08:53:57;;;;;;;;;;;10.20;99.90;;;;;;5080302;28;19920;-75
2023/12/29 08:56:44;;;;;;;;;;;10.20;99.90;;;;;;5084152;28;19969;-75
2023/12/29 08:59:30;;;;;;;;;;;10.30;99.90;;;;;;5098911;28;19916;-76
2023/12/29 09:02:16;;;;;;;;;;;10.20;99.90;;;;;;5087448;28;19970;-75
2023/12/29 09:05:01;;;;;;;;;;;10.20;99.90;;;;;;5084855;28;19917;-75
2023/12/29 09:07:47;;;;;;;;;;;10.30;99.90;;;;;;5106119;28;19967;-76
2023/12/29 09:10:33;;;;;;;;;;;10.30;99.90;;;;;;5073788;28;19915;-76
2023/12/29 09:13:22;;;;;;;;;;;10.30;99.90;;;;;;5093539;28;19955;-75
2023/12/29 09:16:08;;;;;;;;;;;10.40;99.90;;;;;;5085745;28;20014;-76
2023/12/29 09:18:54;;;;;;;;;;;10.40;99.90;;;;;;5093016;28;19916;-76
2023/12/29 09:21:40;;;;;;;;;;;10.40;99.90;;;;;;5096931;28;19962;-75
2023/12/29 09:24:26;;;;;;;;;;;10.40;99.90;;;;;;5097201;28;19974;-75
2023/12/29 09:27:11;;;;;;;;;;;10.50;99.90;;;;;;5094777;28;19931;-76
2023/12/29 09:29:57;;;;;;;;;;;10.50;99.90;;;;;;5096638;28;20316;-76
2023/12/29 09:32:44;;;;;;;;;;;10.50;99.90;;;;;;5090772;28;19944;-76
2023/12/29 09:35:30;;;;;;;;;;;10.50;99.90;;;;;;5062976;28;20267;-76
2023/12/29 09:38:18;;;;;;;;;;;10.50;99.90;;;;;;5078883;28;19916;-75
2023/12/29 09:41:04;;;;;;;;;;;10.60;99.90;;;;;;5090996;28;19931;-75
2023/12/29 09:43:50;;;;;;;;;;;10.60;99.90;;;;;;5092287;28;19920;-76
2023/12/29 09:46:36;;;;;;;;;;;10.60;99.90;;;;;;5091206;28;19915;-75
2023/12/29 09:49:22;;;;;;;;;;;10.60;99.90;;;;;;5085900;28;19915;-77
2023/12/29 09:52:09;;;;;;;;;;;10.60;99.90;;;;;;5081753;28;19920;-77
2023/12/29 09:54:55;;;;;;;;;;;10.60;99.90;;;;;;5066622;28;19916;-75
2023/12/29 09:57:41;;;;;;;;;;;10.60;99.90;;;;;;5092759;28;19927;-76
2023/12/29 10:00:28;;;;;;;;;;;10.60;99.90;;;;;;5062553;28;20317;-76
2023/12/29 10:03:15;;;;;;;;;;;10.60;99.90;;;;;;5076696;28;19928;-76
2023/12/29 10:06:02;;;;;;;;;;;10.60;99.90;;;;;;5074958;28;20296;-75
2023/12/29 10:08:48;;;;;;;;;;;10.50;99.90;;;;;;5096618;28;20370;-76
2023/12/29 10:11:36;;;;;;;;;;;10.40;99.90;;;;;;5093312;28;19916;-76
2023/12/29 10:14:23;;;;;;;;;;;10.40;99.90;;;;;;5089377;28;19927;-75
2023/12/29 10:17:32;;;;;;;;;;;10.10;99.90;;;;;;5090194;28;19955;-75
2023/12/29 10:20:36;;;;;;;;;;;9.90;99.90;;;;;;5094611;28;19928;-75
2023/12/29 10:23:43;;;;;;;;;;;9.80;99.90;;;;;;5094792;28;20845;-75
2023/12/29 10:26:29;;;;;;;;;;;9.60;99.90;;;;;;5086768;28;20009;-75
2023/12/29 10:29:16;;;;;;;;;;;9.60;99.90;;;;;;5088234;28;19923;-75
2023/12/29 10:32:01;;;;;;;;;;;9.50;99.90;;;;;;5088270;28;20329;-75
2023/12/29 10:34:47;;;;;;;;;;;9.30;99.90;;;;;;5069629;28;19939;-75
2023/12/29 10:37:33;;;;;;;;;;;9.30;99.90;;;;;;5090311;28;19927;-75
2023/12/29 10:40:19;;;;;;;;;;;9.20;99.90;;;;;;5091921;28;19912;-75
2023/12/29 10:43:07;;;;;;;;;;;9.20;99.90;;;;;;5090016;28;19916;-75
2023/12/29 10:46:06;;;;;;;;;;;9.10;99.90;;;;;;5087721;28;19927;-75
2023/12/29 10:48:52;;;;;;;;;;;9.10;99.90;;;;;;5089813;28;19920;-75
2023/12/29 10:51:38;;;;;;;;;;;9.10;99.90;;;;;;5093763;28;19919;-75
2023/12/29 10:54:24;;;;;;;;;;;9.10;99.90;;;;;;5084897;28;20247;-76
2023/12/29 10:57:10;;;;;;;;;;;9.10;99.90;;;;;;5083393;28;19984;-75
2023/12/29 10:59:56;;;;;;;;;;;9.10;99.90;;;;;;5077125;28;20027;-75
2023/12/29 11:02:42;;;;;;;;;;;9.10;99.90;;;;;;5081071;28;19920;-75
2023/12/29 11:05:28;;;;;;;;;;;9.10;99.90;;;;;;5075072;28;19923;-75
2023/12/29 11:08:20;;;;;;;;;;;9.10;99.90;;;;;;5085264;28;19939;-75
2023/12/29 11:11:06;;;;;;;;;;;9.20;99.90;;;;;;5091622;28;20254;-76
2023/12/29 11:13:52;;;;;;;;;;;9.20;99.90;;;;;;5070305;28;19962;-75
2023/12/29 11:16:38;;;;;;;;;;;9.20;99.90;;;;;;5096847;28;19912;-75
2023/12/29 11:19:23;;;;;;;;;;;9.20;99.90;;;;;;5080896;28;20330;-75
2023/12/29 11:22:09;;;;;;;;;;;9.20;99.90;;;;;;5100490;28;19923;-75
2023/12/29 11:24:58;;;;;;;;;;;9.20;99.90;;;;;;5067404;28;19935;-76
2023/12/29 11:27:44;;;;;;;;;;;;;;;;;;5092205;28;19927;-75
2023/12/29 11:30:30;;;;;;;;;;;9.30;99.90;;;;;;5086161;28;19912;-74
2023/12/29 11:33:20;;;;;;;;;;;9.30;99.90;;;;;;5080814;28;19927;-75
2023/12/29 11:36:13;;;;;;;;;;;9.30;99.90;;;;;;5065648;28;19926;-74
2023/12/29 11:39:15;;;;;;;;;;;9.30;99.90;;;;;;5089714;28;19916;-75
2023/12/29 11:42:12;;;;;;;;;;;9.30;99.90;;;;;;5092146;28;19923;-75
2023/12/29 11:44:58;;;;;;;;;;;9.40;99.90;;;;;;5086692;28;19920;-74
2023/12/29 11:47:45;;;;;;;;;;;;;;;;;;5079080;28;19920;-74
2023/12/29 11:50:31;;;;;;;;;;;9.50;99.90;;;;;;5087441;28;20354;-75
2023/12/29 11:53:30;;;;;;;;;;;9.50;99.90;;;;;;5085915;28;19916;-75
2023/12/29 11:56:16;;;;;;;;;;;9.60;99.90;;;;;;5090701;28;20003;-75
2023/12/29 11:59:12;;;;;;;;;;;9.60;99.90;;;;;;5063976;28;19915;-74
2023/12/29 12:02:00;;;;;;;;;;;9.70;99.90;;;;;;5064337;28;19978;-75
2023/12/29 12:04:46;;;;;;;;;;;9.70;99.90;;;;;;5078224;28;19920;-75
2023/12/29 12:07:32;;;;;;;;;;;9.70;99.90;;;;;;5082682;28;19920;-75
2023/12/29 12:10:24;;;;;;;;;;;9.70;99.90;;;;;;5087037;28;19916;-75
2023/12/29 12:13:09;;;;;;;;;;;9.80;99.90;;;;;;5090091;28;19977;-74
2023/12/29 12:15:55;;;;;;;;;;;9.80;99.90;;;;;;5090885;28;19916;-75
2023/12/29 12:18:41;;;;;;;;;;;9.80;99.90;;;;;;5075747;28;19916;-75
2023/12/29 12:21:27;;;;;;;;;;;9.80;99.90;;;;;;5077612;28;20023;-75
2023/12/29 12:24:13;;;;;;;;;;;9.90;99.90;;;;;;5090521;28;19924;-75
2023/12/29 12:27:00;;;;;;;;;;;9.90;99.90;;;;;;5086573;28;20675;-74
2023/12/29 12:29:45;;;;;;;;;;;9.90;99.90;;;;;;5106788;27;19972;-76
2023/12/29 12:32:31;;;;;;;;;;;10.00;99.90;;;;;;5096873;28;19944;-75
2023/12/29 12:35:18;;;;;;;;;;;10.10;99.90;;;;;;5088658;28;19924;-76
2023/12/29 12:38:24;;;;;;;;;;;10.10;99.90;;;;;;5066177;28;19923;-75
2023/12/29 12:41:11;;;;;;;;;;;10.10;99.90;;;;;;5093660;28;19916;-75
2023/12/29 12:44:13;;;;;;;;;;;10.10;99.90;;;;;;5092996;28;19920;-75
2023/12/29 12:46:59;;;;;;;;;;;10.10;99.90;;;;;;4985634;28;19929;-75
2023/12/29 12:49:45;;;;;;;;;;;10.10;99.90;;;;;;5019923;28;19944;-75
2023/12/29 12:52:31;;;;;;;;;;;10.20;99.90;;;;;;5027880;28;19929;-75
2023/12/29 12:55:17;;;;;;;;;;;10.20;99.90;;;;;;5014448;28;20605;-74
2023/12/29 12:58:05;;;;;;;;;;;10.20;99.90;;;;;;5033705;28;20000;-74
2023/12/29 13:00:50;;;;;;;;;;;10.20;99.90;;;;;;5020104;28;19928;-75
2023/12/29 13:03:37;;;;;;;;;;;10.20;99.90;;;;;;5018873;28;19928;-74
2023/12/29 13:06:22;;;;;;;;;;;10.20;99.90;;;;;;5032454;28;19917;-74
2023/12/29 13:09:11;;;;;;;;;;;10.20;99.90;;;;;;5027373;28;19921;-75
2023/12/29 13:12:10;;;;;;;;;;;10.20;99.90;;;;;;5025116;28;19914;-75
2023/12/29 13:15:08;;;;;;;;;;;10.20;99.90;;;;;;5010588;28;19967;-75
2023/12/29 13:17:54;;;;;;;;;;;10.20;99.90;;;;;;5027756;28;19932;-75
2023/12/29 13:20:43;;;;;;;;;;;10.30;99.90;;;;;;5022450;28;19913;-75
2023/12/29 13:23:29;;;;;;;;;;;10.30;99.90;;;;;;5014175;28;19925;-75
2023/12/29 13:26:15;;;;;;;;;;;10.30;99.90;;;;;;5019216;28;19971;-75
2023/12/29 13:29:01;;;;;;;;;;;10.30;99.90;;;;;;5013212;28;19928;-75
2023/12/29 13:31:52;;;;;;;;;;;10.20;99.90;;;;;;5025773;28;19913;-75
2023/12/29 13:34:56;;;;;;;;;;;10.10;99.90;;;;;;5027430;28;19917;-75
2023/12/29 13:37:44;;;;;;;;;;;10.10;99.90;;;;;;5023729;28;19917;-76
2023/12/29 13:40:41;;;;;;;;;;;10.00;99.90;;;;;;5008612;28;20275;-75
2023/12/29 13:43:29;;;;;;;;;;;9.90;99.90;;;;;;5033737;28;19956;-75
2023/12/29 13:46:15;;;;;;;;;;;9.90;99.90;;;;;;5025060;28;19928;-75
2023/12/29 13:49:01;;;;;;;;;;;9.90;99.90;;;;;;5015200;28;20024;-75
2023/12/29 13:51:47;;;;;;;;;;;10.00;99.90;;;;;;5025529;28;20397;-75
2023/12/29 13:54:45;;;;;;;;;;;10.00;99.90;;;;;;5014844;28;19918;-75
2023/12/29 13:57:32;;;;;;;;;;;10.00;99.90;;;;;;5023953;28;19924;-75
2023/12/29 14:00:21;;;;;;;;;;;10.00;99.90;;;;;;5031929;28;20024;-76
2023/12/29 14:03:14;;;;;;;;;;;10.10;99.90;;;;;;5034665;28;20007;-77
2023/12/29 14:06:01;;;;;;;;;;;10.30;99.90;;;;;;5029821;28;19921;-76
2023/12/29 14:08:47;;;;;;;;;;;10.50;99.90;;;;;;5018804;28;19928;-76
2023/12/29 14:11:33;;;;;;;;;;;10.60;99.90;;;;;;5023438;28;19956;-76
2023/12/29 14:14:26;;;;;;;;;;;10.60;99.90;;;;;;5028504;28;19921;-78
2023/12/29 14:17:19;;;;;;;;;;;10.70;99.90;;;;;;5022709;28;19917;-77
2023/12/29 14:20:06;;;;;;;;;;;10.70;99.90;;;;;;5029351;28;19913;-77
2023/12/29 14:23:00;;;;;;;;;;;10.70;99.90;;;;;;5028917;28;20410;-78
2023/12/29 14:25:47;;;;;;;;;;;10.80;99.90;;;;;;5007109;28;19918;-77
2023/12/29 14:28:32;;;;;;;;;;;10.90;99.90;;;;;;5018559;28;20004;-76
2023/12/29 14:31:18;;;;;;;;;;;10.90;99.90;;;;;;5025370;28;20002;-77
2023/12/29 14:34:05;;;;;;;;;;;11.00;99.90;;;;;;5029039;28;19917;-77
2023/12/29 14:36:51;;;;;;;;;;;11.00;99.90;;;;;;5027732;28;19924;-77
2023/12/29 14:39:36;;;;;;;;;;;11.10;99.90;;;;;;5023814;28;20349;-77
2023/12/29 14:42:22;;;;;;;;;;;11.10;99.90;;;;;;5013766;28;19925;-77
2023/12/29 14:45:09;;;;;;;;;;;11.10;99.90;;;;;;5028525;28;20215;-77
2023/12/29 14:47:55;;;;;;;;;;;11.10;99.90;;;;;;5013730;28;20602;-77
2023/12/29 14:50:45;;;;;;;;;;;11.00;99.90;;;;;;5019598;28;19960;-75
2023/12/29 14:53:31;;;;;;;;;;;11.00;99.90;;;;;;5029500;28;19957;-74
2023/12/29 14:56:16;;;;;;;;;;;10.80;99.90;;;;;;5011220;28;20390;-75
2023/12/29 14:59:02;;;;;;;;;;;10.70;99.90;;;;;;5036831;28;19928;-75
2023/12/29 15:01:48;;;;;;;;;;;10.70;99.90;;;;;;5021448;28;20621;-75
2023/12/29 15:04:34;;;;;;;;;;;10.60;99.90;;;;;;5030070;28;19950;-75
2023/12/29 15:07:29;;;;;;;;;;;10.60;99.90;;;;;;5027068;28;19917;-75
2023/12/29 15:10:15;;;;;;;;;;;10.50;99.90;;;;;;5014624;28;20326;-75
2023/12/29 15:13:01;;;;;;;;;;;10.40;99.90;;;;;;5014144;28;19945;-75
2023/12/29 15:15:47;;;;;;;;;;;10.40;99.90;;;;;;5016235;28;19956;-75
2023/12/29 15:18:33;;;;;;;;;;;10.40;99.90;;;;;;5016287;28;19913;-75
2023/12/29 15:21:18;;;;;;;;;;;10.40;99.90;;;;;;5028633;28;19924;-75
2023/12/29 15:24:04;;;;;;;;;;;10.40;99.90;;;;;;5024518;28;19936;-75
2023/12/29 15:26:50;;;;;;;;;;;10.40;99.90;;;;;;5023349;28;19921;-75
2023/12/29 15:29:36;;;;;;;;;;;10.40;99.90;;;;;;5009093;28;20292;-75
2023/12/29 15:32:22;;;;;;;;;;;10.30;99.90;;;;;;5014958;28;20007;-74
2023/12/29 15:35:08;;;;;;;;;;;10.40;99.90;;;;;;5013462;28;19952;-75
2023/12/29 15:37:55;;;;;;;;;;;10.30;99.90;;;;;;5022398;28;19921;-75
2023/12/29 15:40:41;;;;;;;;;;;10.30;99.90;;;;;;5015692;28;19917;-75
2023/12/29 15:43:29;;;;;;;;;;;10.30;99.90;;;;;;5014903;28;19986;-75
2023/12/29 15:46:15;;;;;;;;;;;10.30;99.90;;;;;;5004614;28;19928;-76
2023/12/29 15:49:02;;;;;;;;;;;10.40;99.90;;;;;;5016097;28;19917;-76
2023/12/29 15:51:48;;;;;;;;;;;10.30;99.90;;;;;;5028767;28;19918;-75
2023/12/29 15:54:34;;;;;;;;;;;10.40;99.90;;;;;;5002911;28;19917;-75
2023/12/29 15:57:20;;;;;;;;;;;10.30;99.90;;;;;;5006876;28;20369;-76
2023/12/29 16:00:08;;;;;;;;;;;10.40;99.90;;;;;;5019751;28;19956;-76
2023/12/29 16:02:53;;;;;;;;;;;10.40;99.90;;;;;;5016306;28;19963;-76
2023/12/29 16:05:39;;;;;;;;;;;10.40;99.90;;;;;;5029895;28;20003;-76
2023/12/29 16:08:25;;;;;;;;;;;10.40;99.90;;;;;;5012525;28;19932;-77
2023/12/29 16:11:18;;;;;;;;;;;10.40;99.90;;;;;;5028951;28;19973;-75
2023/12/29 16:14:04;;;;;;;;;;;10.40;99.90;;;;;;5021708;28;19917;-75
2023/12/29 16:16:50;;;;;;;;;;;10.40;99.90;;;;;;5021367;28;20320;-74
2023/12/29 16:19:36;;;;;;;;;;;10.40;99.90;;;;;;5009176;28;19928;-74
2023/12/29 16:22:22;;;;;;;;;;;10.40;99.90;;;;;;5011942;28;19924;-75